sensor_id;sensor_type;location;lat;lon;timestamp;P1;durP1;ratioP1;P2;durP2;ratioP2
83541;SDS011;73485;49.194;12.104;2023-12-20T00:01:30;9.90;;;6.05;;
83541;SDS011;73485;49.194;12.104;2023-12-20T00:03:59;11.57;;;6.22;;
83541;SDS011;73485;49.194;12.104;2023-12-20T00:06:27;11.68;;;5.80;;
83541;SDS011;73485;49.194;12.104;2023-12-20T00:08:55;10.98;;;6.22;;
83541;SDS011;73485;49.194;12.104;2023-12-20T00:11:24;11.55;;;7.07;;
83541;SDS011;73485;49.194;12.104;2023-12-20T00:13:51;16.55;;;7.88;;
83541;SDS011;73485;49.194;12.104;2023-12-20T00:16:19;8.23;;;5.88;;
83541;SDS011;73485;49.194;12.104;2023-12-20T00:18:47;15.10;;;7.32;;
83541;SDS011;73485;49.194;12.104;2023-12-20T00:21:16;12.13;;;7.22;;
83541;SDS011;73485;49.194;12.104;2023-12-20T00:23:43;12.52;;;6.03;;
83541;SDS011;73485;49.194;12.104;2023-12-20T00:26:11;11.65;;;6.10;;
83541;SDS011;73485;49.194;12.104;2023-12-20T00:28:38;11.57;;;6.70;;
83541;SDS011;73485;49.194;12.104;2023-12-20T00:31:06;12.00;;;7.35;;
83541;SDS011;73485;49.194;12.104;2023-12-20T00:33:34;12.75;;;7.28;;
83541;SDS011;73485;49.194;12.104;2023-12-20T00:36:02;12.85;;;7.63;;
83541;SDS011;73485;49.194;12.104;2023-12-20T00:38:31;13.07;;;7.65;;
83541;SDS011;73485;49.194;12.104;2023-12-20T00:40:58;13.65;;;7.30;;
83541;SDS011;73485;49.194;12.104;2023-12-20T00:43:26;14.18;;;7.72;;
83541;SDS011;73485;49.194;12.104;2023-12-20T00:45:54;11.98;;;7.30;;
83541;SDS011;73485;49.194;12.104;2023-12-20T00:48:21;10.95;;;6.45;;
83541;SDS011;73485;49.194;12.104;2023-12-20T00:50:49;13.60;;;6.90;;
83541;SDS011;73485;49.194;12.104;2023-12-20T00:53:16;12.63;;;7.25;;
83541;SDS011;73485;49.194;12.104;2023-12-20T00:55:45;14.65;;;7.85;;
83541;SDS011;73485;49.194;12.104;2023-12-20T00:58:13;12.70;;;7.18;;
83541;SDS011;73485;49.194;12.104;2023-12-20T01:00:42;10.85;;;6.60;;
83541;SDS011;73485;49.194;12.104;2023-12-20T01:03:10;11.27;;;7.35;;
83541;SDS011;73485;49.194;12.104;2023-12-20T01:05:38;12.32;;;7.28;;
83541;SDS011;73485;49.194;12.104;2023-12-20T01:08:06;9.90;;;5.68;;
83541;SDS011;73485;49.194;12.104;2023-12-20T01:10:33;11.45;;;6.80;;
83541;SDS011;73485;49.194;12.104;2023-12-20T01:13:02;12.00;;;7.18;;
83541;SDS011;73485;49.194;12.104;2023-12-20T01:15:30;13.07;;;6.15;;
83541;SDS011;73485;49.194;12.104;2023-12-20T01:17:58;10.68;;;6.38;;
83541;SDS011;73485;49.194;12.104;2023-12-20T01:20:25;15.10;;;6.00;;
83541;SDS011;73485;49.194;12.104;2023-12-20T01:22:53;11.38;;;5.97;;
83541;SDS011;73485;49.194;12.104;2023-12-20T01:25:21;13.38;;;6.55;;
83541;SDS011;73485;49.194;12.104;2023-12-20T01:27:48;10.80;;;5.85;;
83541;SDS011;73485;49.194;12.104;2023-12-20T01:30:17;13.43;;;7.13;;
83541;SDS011;73485;49.194;12.104;2023-12-20T01:32:45;12.95;;;6.38;;
83541;SDS011;73485;49.194;12.104;2023-12-20T01:35:13;9.13;;;5.82;;
83541;SDS011;73485;49.194;12.104;2023-12-20T01:37:41;11.75;;;6.28;;
83541;SDS011;73485;49.194;12.104;2023-12-20T01:40:09;12.15;;;6.10;;
83541;SDS011;73485;49.194;12.104;2023-12-20T01:42:37;11.27;;;6.97;;
83541;SDS011;73485;49.194;12.104;2023-12-20T01:45:05;11.73;;;6.82;;
83541;SDS011;73485;49.194;12.104;2023-12-20T01:47:35;13.52;;;7.20;;
83541;SDS011;73485;49.194;12.104;2023-12-20T01:50:03;14.05;;;6.82;;
83541;SDS011;73485;49.194;12.104;2023-12-20T01:52:34;11.57;;;7.03;;
83541;SDS011;73485;49.194;12.104;2023-12-20T01:55:02;11.98;;;6.70;;
83541;SDS011;73485;49.194;12.104;2023-12-20T01:57:37;12.80;;;7.32;;
83541;SDS011;73485;49.194;12.104;2023-12-20T02:00:05;15.07;;;6.15;;
83541;SDS011;73485;49.194;12.104;2023-12-20T02:02:37;11.85;;;5.72;;
83541;SDS011;73485;49.194;12.104;2023-12-20T02:05:05;10.90;;;6.25;;
83541;SDS011;73485;49.194;12.104;2023-12-20T02:07:34;9.88;;;6.20;;
83541;SDS011;73485;49.194;12.104;2023-12-20T02:10:01;11.75;;;6.38;;
83541;SDS011;73485;49.194;12.104;2023-12-20T02:12:30;11.13;;;5.35;;
83541;SDS011;73485;49.194;12.104;2023-12-20T02:14:57;12.02;;;6.32;;
83541;SDS011;73485;49.194;12.104;2023-12-20T02:17:25;14.73;;;5.85;;
83541;SDS011;73485;49.194;12.104;2023-12-20T02:19:54;10.63;;;5.97;;
83541;SDS011;73485;49.194;12.104;2023-12-20T02:22:24;11.35;;;5.55;;
83541;SDS011;73485;49.194;12.104;2023-12-20T02:24:51;13.63;;;6.38;;
83541;SDS011;73485;49.194;12.104;2023-12-20T02:27:19;9.05;;;5.60;;
83541;SDS011;73485;49.194;12.104;2023-12-20T02:29:48;12.75;;;6.50;;
83541;SDS011;73485;49.194;12.104;2023-12-20T02:32:15;9.20;;;6.40;;
83541;SDS011;73485;49.194;12.104;2023-12-20T02:34:44;9.45;;;5.68;;
83541;SDS011;73485;49.194;12.104;2023-12-20T02:37:11;14.95;;;7.05;;
83541;SDS011;73485;49.194;12.104;2023-12-20T02:39:40;18.15;;;6.72;;
83541;SDS011;73485;49.194;12.104;2023-12-20T02:42:08;11.40;;;7.40;;
83541;SDS011;73485;49.194;12.104;2023-12-20T02:44:36;13.13;;;6.63;;
83541;SDS011;73485;49.194;12.104;2023-12-20T02:47:03;10.35;;;6.35;;
83541;SDS011;73485;49.194;12.104;2023-12-20T02:49:31;11.68;;;6.80;;
83541;SDS011;73485;49.194;12.104;2023-12-20T02:51:59;14.02;;;7.03;;
83541;SDS011;73485;49.194;12.104;2023-12-20T02:54:26;12.77;;;7.28;;
83541;SDS011;73485;49.194;12.104;2023-12-20T02:56:55;15.05;;;7.55;;
83541;SDS011;73485;49.194;12.104;2023-12-20T02:59:23;14.05;;;7.75;;
83541;SDS011;73485;49.194;12.104;2023-12-20T03:01:50;14.25;;;7.18;;
83541;SDS011;73485;49.194;12.104;2023-12-20T03:04:18;13.82;;;7.85;;
83541;SDS011;73485;49.194;12.104;2023-12-20T03:06:46;14.00;;;7.55;;
83541;SDS011;73485;49.194;12.104;2023-12-20T03:09:14;14.77;;;7.47;;
83541;SDS011;73485;49.194;12.104;2023-12-20T03:11:41;14.70;;;7.97;;
83541;SDS011;73485;49.194;12.104;2023-12-20T03:14:10;15.20;;;7.15;;
83541;SDS011;73485;49.194;12.104;2023-12-20T03:16:38;11.75;;;6.72;;
83541;SDS011;73485;49.194;12.104;2023-12-20T03:19:05;15.50;;;8.88;;
83541;SDS011;73485;49.194;12.104;2023-12-20T03:21:33;17.92;;;7.82;;
83541;SDS011;73485;49.194;12.104;2023-12-20T03:24:00;16.02;;;8.13;;
83541;SDS011;73485;49.194;12.104;2023-12-20T03:26:28;20.05;;;8.60;;
83541;SDS011;73485;49.194;12.104;2023-12-20T03:28:56;15.40;;;8.57;;
83541;SDS011;73485;49.194;12.104;2023-12-20T03:31:25;17.98;;;8.90;;
83541;SDS011;73485;49.194;12.104;2023-12-20T03:33:52;15.43;;;7.32;;
83541;SDS011;73485;49.194;12.104;2023-12-20T03:36:20;15.73;;;7.88;;
83541;SDS011;73485;49.194;12.104;2023-12-20T03:38:48;17.33;;;8.38;;
83541;SDS011;73485;49.194;12.104;2023-12-20T03:41:15;16.67;;;8.40;;
83541;SDS011;73485;49.194;12.104;2023-12-20T03:43:43;22.40;;;8.48;;
83541;SDS011;73485;49.194;12.104;2023-12-20T03:46:11;14.57;;;7.80;;
83541;SDS011;73485;49.194;12.104;2023-12-20T03:48:39;14.18;;;7.32;;
83541;SDS011;73485;49.194;12.104;2023-12-20T03:51:07;20.02;;;8.40;;
83541;SDS011;73485;49.194;12.104;2023-12-20T03:53:35;15.27;;;8.43;;
83541;SDS011;73485;49.194;12.104;2023-12-20T03:56:02;21.17;;;9.38;;
83541;SDS011;73485;49.194;12.104;2023-12-20T03:58:30;19.15;;;8.98;;
83541;SDS011;73485;49.194;12.104;2023-12-20T04:00:58;14.38;;;8.38;;
83541;SDS011;73485;49.194;12.104;2023-12-20T04:03:26;19.85;;;8.02;;
83541;SDS011;73485;49.194;12.104;2023-12-20T04:05:55;12.90;;;7.53;;
83541;SDS011;73485;49.194;12.104;2023-12-20T04:08:23;11.77;;;6.28;;
83541;SDS011;73485;49.194;12.104;2023-12-20T04:10:50;12.13;;;5.97;;
83541;SDS011;73485;49.194;12.104;2023-12-20T04:13:18;10.57;;;6.13;;
83541;SDS011;73485;49.194;12.104;2023-12-20T04:15:45;12.73;;;6.28;;
83541;SDS011;73485;49.194;12.104;2023-12-20T04:18:14;13.45;;;5.88;;
83541;SDS011;73485;49.194;12.104;2023-12-20T04:20:41;12.07;;;6.15;;
83541;SDS011;73485;49.194;12.104;2023-12-20T04:23:10;10.73;;;5.53;;
83541;SDS011;73485;49.194;12.104;2023-12-20T04:25:38;11.18;;;5.88;;
83541;SDS011;73485;49.194;12.104;2023-12-20T04:28:05;12.68;;;5.13;;
83541;SDS011;73485;49.194;12.104;2023-12-20T04:30:33;12.50;;;4.90;;
83541;SDS011;73485;49.194;12.104;2023-12-20T04:33:01;10.00;;;5.18;;
83541;SDS011;73485;49.194;12.104;2023-12-20T04:35:29;7.50;;;4.18;;
83541;SDS011;73485;49.194;12.104;2023-12-20T04:37:57;8.35;;;4.43;;
83541;SDS011;73485;49.194;12.104;2023-12-20T04:40:26;7.88;;;3.85;;
83541;SDS011;73485;49.194;12.104;2023-12-20T04:42:53;5.93;;;3.50;;
83541;SDS011;73485;49.194;12.104;2023-12-20T04:45:21;9.23;;;3.10;;
83541;SDS011;73485;49.194;12.104;2023-12-20T04:47:50;6.10;;;2.92;;
83541;SDS011;73485;49.194;12.104;2023-12-20T04:50:17;6.50;;;3.17;;
83541;SDS011;73485;49.194;12.104;2023-12-20T04:52:46;5.25;;;3.00;;
83541;SDS011;73485;49.194;12.104;2023-12-20T04:55:14;3.70;;;2.35;;
83541;SDS011;73485;49.194;12.104;2023-12-20T04:57:43;5.70;;;2.78;;
83541;SDS011;73485;49.194;12.104;2023-12-20T05:00:11;4.13;;;2.63;;
83541;SDS011;73485;49.194;12.104;2023-12-20T05:02:41;3.63;;;1.83;;
83541;SDS011;73485;49.194;12.104;2023-12-20T05:05:09;6.03;;;2.13;;
83541;SDS011;73485;49.194;12.104;2023-12-20T05:07:37;3.55;;;1.85;;
83541;SDS011;73485;49.194;12.104;2023-12-20T05:10:05;3.53;;;1.98;;
83541;SDS011;73485;49.194;12.104;2023-12-20T05:12:34;2.60;;;1.60;;
83541;SDS011;73485;49.194;12.104;2023-12-20T05:15:04;1.90;;;1.55;;
83541;SDS011;73485;49.194;12.104;2023-12-20T05:17:32;1.75;;;1.10;;
83541;SDS011;73485;49.194;12.104;2023-12-20T05:20:01;1.48;;;1.25;;
83541;SDS011;73485;49.194;12.104;2023-12-20T05:22:29;2.03;;;1.15;;
83541;SDS011;73485;49.194;12.104;2023-12-20T05:24:56;1.75;;;1.10;;
83541;SDS011;73485;49.194;12.104;2023-12-20T05:27:24;1.98;;;1.88;;
83541;SDS011;73485;49.194;12.104;2023-12-20T05:29:52;1.67;;;1.17;;
83541;SDS011;73485;49.194;12.104;2023-12-20T05:32:25;1.75;;;1.23;;
83541;SDS011;73485;49.194;12.104;2023-12-20T05:34:52;1.63;;;1.17;;
83541;SDS011;73485;49.194;12.104;2023-12-20T05:37:20;1.58;;;1.13;;
83541;SDS011;73485;49.194;12.104;2023-12-20T05:39:48;1.58;;;1.35;;
83541;SDS011;73485;49.194;12.104;2023-12-20T05:42:15;3.15;;;1.25;;
83541;SDS011;73485;49.194;12.104;2023-12-20T05:44:43;2.08;;;1.00;;
83541;SDS011;73485;49.194;12.104;2023-12-20T05:47:10;1.38;;;0.90;;
83541;SDS011;73485;49.194;12.104;2023-12-20T05:49:39;1.90;;;1.25;;
83541;SDS011;73485;49.194;12.104;2023-12-20T05:52:07;1.55;;;1.25;;
83541;SDS011;73485;49.194;12.104;2023-12-20T05:54:35;1.30;;;0.95;;
83541;SDS011;73485;49.194;12.104;2023-12-20T05:57:03;1.90;;;1.15;;
83541;SDS011;73485;49.194;12.104;2023-12-20T05:59:31;1.75;;;1.15;;
83541;SDS011;73485;49.194;12.104;2023-12-20T06:01:59;2.53;;;1.40;;
83541;SDS011;73485;49.194;12.104;2023-12-20T06:04:26;1.55;;;1.13;;
83541;SDS011;73485;49.194;12.104;2023-12-20T06:06:55;3.40;;;1.70;;
83541;SDS011;73485;49.194;12.104;2023-12-20T06:09:22;1.45;;;1.20;;
83541;SDS011;73485;49.194;12.104;2023-12-20T06:11:50;1.90;;;1.05;;
83541;SDS011;73485;49.194;12.104;2023-12-20T06:14:17;2.22;;;1.48;;
83541;SDS011;73485;49.194;12.104;2023-12-20T06:16:45;1.60;;;0.93;;
83541;SDS011;73485;49.194;12.104;2023-12-20T06:19:13;3.10;;;1.65;;
83541;SDS011;73485;49.194;12.104;2023-12-20T06:21:40;1.55;;;1.13;;
83541;SDS011;73485;49.194;12.104;2023-12-20T06:24:11;2.63;;;1.63;;
83541;SDS011;73485;49.194;12.104;2023-12-20T06:26:39;1.63;;;1.25;;
83541;SDS011;73485;49.194;12.104;2023-12-20T06:29:07;1.40;;;1.15;;
83541;SDS011;73485;49.194;12.104;2023-12-20T06:31:34;1.48;;;1.15;;
83541;SDS011;73485;49.194;12.104;2023-12-20T06:34:02;2.25;;;1.27;;
83541;SDS011;73485;49.194;12.104;2023-12-20T06:36:30;0.82;;;0.70;;
83541;SDS011;73485;49.194;12.104;2023-12-20T06:38:57;2.25;;;1.15;;
83541;SDS011;73485;49.194;12.104;2023-12-20T06:41:26;1.10;;;0.93;;
83541;SDS011;73485;49.194;12.104;2023-12-20T06:43:55;1.23;;;0.93;;
83541;SDS011;73485;49.194;12.104;2023-12-20T06:46:22;1.33;;;0.88;;
83541;SDS011;73485;49.194;12.104;2023-12-20T06:48:50;1.20;;;0.80;;
83541;SDS011;73485;49.194;12.104;2023-12-20T06:51:18;1.15;;;0.95;;
83541;SDS011;73485;49.194;12.104;2023-12-20T06:53:46;2.10;;;1.30;;
83541;SDS011;73485;49.194;12.104;2023-12-20T06:56:14;1.63;;;1.30;;
83541;SDS011;73485;49.194;12.104;2023-12-20T06:58:46;2.08;;;1.55;;
83541;SDS011;73485;49.194;12.104;2023-12-20T07:01:14;3.15;;;2.33;;
83541;SDS011;73485;49.194;12.104;2023-12-20T07:03:42;4.13;;;2.22;;
83541;SDS011;73485;49.194;12.104;2023-12-20T07:06:10;4.50;;;2.42;;
83541;SDS011;73485;49.194;12.104;2023-12-20T07:08:38;2.53;;;1.70;;
83541;SDS011;73485;49.194;12.104;2023-12-20T07:11:07;3.05;;;1.58;;
83541;SDS011;73485;49.194;12.104;2023-12-20T07:13:34;1.52;;;1.00;;
83541;SDS011;73485;49.194;12.104;2023-12-20T07:16:04;1.50;;;0.90;;
83541;SDS011;73485;49.194;12.104;2023-12-20T07:18:31;3.67;;;1.00;;
83541;SDS011;73485;49.194;12.104;2023-12-20T07:20:59;1.33;;;1.05;;
83541;SDS011;73485;49.194;12.104;2023-12-20T07:23:27;1.42;;;1.23;;
83541;SDS011;73485;49.194;12.104;2023-12-20T07:25:54;2.17;;;1.05;;
83541;SDS011;73485;49.194;12.104;2023-12-20T07:28:22;1.33;;;0.90;;
83541;SDS011;73485;49.194;12.104;2023-12-20T07:30:51;1.42;;;0.95;;
83541;SDS011;73485;49.194;12.104;2023-12-20T07:33:20;1.65;;;1.02;;
83541;SDS011;73485;49.194;12.104;2023-12-20T07:35:48;1.00;;;0.90;;
83541;SDS011;73485;49.194;12.104;2023-12-20T07:38:18;1.25;;;0.90;;
83541;SDS011;73485;49.194;12.104;2023-12-20T07:40:46;1.80;;;1.00;;
83541;SDS011;73485;49.194;12.104;2023-12-20T07:43:13;2.05;;;1.23;;
83541;SDS011;73485;49.194;12.104;2023-12-20T07:45:41;2.33;;;1.20;;
83541;SDS011;73485;49.194;12.104;2023-12-20T07:48:09;1.50;;;1.00;;
83541;SDS011;73485;49.194;12.104;2023-12-20T07:50:38;2.08;;;1.40;;
83541;SDS011;73485;49.194;12.104;2023-12-20T07:53:05;1.80;;;1.00;;
83541;SDS011;73485;49.194;12.104;2023-12-20T07:55:33;1.60;;;1.13;;
83541;SDS011;73485;49.194;12.104;2023-12-20T07:58:01;2.50;;;1.20;;
83541;SDS011;73485;49.194;12.104;2023-12-20T08:00:28;1.05;;;0.93;;
83541;SDS011;73485;49.194;12.104;2023-12-20T08:02:56;2.20;;;1.33;;
83541;SDS011;73485;49.194;12.104;2023-12-20T08:05:23;1.50;;;0.95;;
83541;SDS011;73485;49.194;12.104;2023-12-20T08:07:52;1.38;;;0.90;;
83541;SDS011;73485;49.194;12.104;2023-12-20T08:10:20;2.05;;;1.00;;
83541;SDS011;73485;49.194;12.104;2023-12-20T08:12:48;1.50;;;1.10;;
83541;SDS011;73485;49.194;12.104;2023-12-20T08:15:15;1.58;;;0.85;;
83541;SDS011;73485;49.194;12.104;2023-12-20T08:17:43;1.50;;;1.15;;
83541;SDS011;73485;49.194;12.104;2023-12-20T08:20:11;1.50;;;1.17;;
83541;SDS011;73485;49.194;12.104;2023-12-20T08:22:45;1.52;;;1.08;;
83541;SDS011;73485;49.194;12.104;2023-12-20T08:25:14;1.58;;;1.40;;
83541;SDS011;73485;49.194;12.104;2023-12-20T08:27:42;3.33;;;1.05;;
83541;SDS011;73485;49.194;12.104;2023-12-20T08:30:10;1.70;;;1.10;;
83541;SDS011;73485;49.194;12.104;2023-12-20T08:32:38;1.85;;;1.08;;
83541;SDS011;73485;49.194;12.104;2023-12-20T08:35:06;1.33;;;1.00;;
83541;SDS011;73485;49.194;12.104;2023-12-20T08:37:35;2.60;;;1.20;;
83541;SDS011;73485;49.194;12.104;2023-12-20T08:40:03;1.90;;;1.15;;
83541;SDS011;73485;49.194;12.104;2023-12-20T08:42:33;2.28;;;1.20;;
83541;SDS011;73485;49.194;12.104;2023-12-20T08:45:00;1.27;;;1.05;;
83541;SDS011;73485;49.194;12.104;2023-12-20T08:47:30;1.85;;;1.13;;
83541;SDS011;73485;49.194;12.104;2023-12-20T08:49:58;1.77;;;1.33;;
83541;SDS011;73485;49.194;12.104;2023-12-20T08:52:26;1.88;;;1.33;;
83541;SDS011;73485;49.194;12.104;2023-12-20T08:54:56;2.38;;;1.20;;
83541;SDS011;73485;49.194;12.104;2023-12-20T08:57:23;1.90;;;1.40;;
83541;SDS011;73485;49.194;12.104;2023-12-20T08:59:52;3.10;;;1.65;;
83541;SDS011;73485;49.194;12.104;2023-12-20T09:02:20;2.58;;;1.40;;
83541;SDS011;73485;49.194;12.104;2023-12-20T09:04:48;2.72;;;1.40;;
83541;SDS011;73485;49.194;12.104;2023-12-20T09:07:22;2.10;;;1.52;;
83541;SDS011;73485;49.194;12.104;2023-12-20T09:09:50;3.88;;;1.95;;
83541;SDS011;73485;49.194;12.104;2023-12-20T09:12:18;3.00;;;1.67;;
83541;SDS011;73485;49.194;12.104;2023-12-20T09:14:46;2.28;;;1.83;;
83541;SDS011;73485;49.194;12.104;2023-12-20T09:17:15;2.45;;;1.50;;
83541;SDS011;73485;49.194;12.104;2023-12-20T09:19:43;3.05;;;2.10;;
83541;SDS011;73485;49.194;12.104;2023-12-20T09:22:12;6.18;;;2.00;;
83541;SDS011;73485;49.194;12.104;2023-12-20T09:24:39;2.10;;;1.70;;
83541;SDS011;73485;49.194;12.104;2023-12-20T09:27:07;2.65;;;2.05;;
83541;SDS011;73485;49.194;12.104;2023-12-20T09:29:35;2.38;;;1.60;;
83541;SDS011;73485;49.194;12.104;2023-12-20T09:32:02;2.70;;;1.92;;
83541;SDS011;73485;49.194;12.104;2023-12-20T09:34:32;3.00;;;1.80;;
83541;SDS011;73485;49.194;12.104;2023-12-20T09:37:00;2.35;;;1.50;;
83541;SDS011;73485;49.194;12.104;2023-12-20T09:39:29;2.60;;;1.60;;
83541;SDS011;73485;49.194;12.104;2023-12-20T09:42:00;3.22;;;1.55;;
83541;SDS011;73485;49.194;12.104;2023-12-20T09:44:28;3.03;;;1.63;;
83541;SDS011;73485;49.194;12.104;2023-12-20T09:46:56;2.20;;;1.98;;
83541;SDS011;73485;49.194;12.104;2023-12-20T09:49:25;2.17;;;1.48;;
83541;SDS011;73485;49.194;12.104;2023-12-20T09:51:56;2.83;;;1.67;;
83541;SDS011;73485;49.194;12.104;2023-12-20T09:54:24;1.95;;;1.65;;
83541;SDS011;73485;49.194;12.104;2023-12-20T09:56:52;1.98;;;1.50;;
83541;SDS011;73485;49.194;12.104;2023-12-20T09:59:20;4.82;;;1.80;;
83541;SDS011;73485;49.194;12.104;2023-12-20T10:01:48;2.83;;;1.88;;
83541;SDS011;73485;49.194;12.104;2023-12-20T10:04:15;2.95;;;2.35;;
83541;SDS011;73485;49.194;12.104;2023-12-20T10:06:57;3.10;;;1.98;;
83541;SDS011;73485;49.194;12.104;2023-12-20T10:09:24;4.00;;;2.17;;
83541;SDS011;73485;49.194;12.104;2023-12-20T10:11:53;2.63;;;1.92;;
83541;SDS011;73485;49.194;12.104;2023-12-20T10:14:22;2.90;;;2.03;;
83541;SDS011;73485;49.194;12.104;2023-12-20T10:16:50;2.95;;;2.03;;
83541;SDS011;73485;49.194;12.104;2023-12-20T10:19:19;3.05;;;2.15;;
83541;SDS011;73485;49.194;12.104;2023-12-20T10:21:46;2.67;;;2.00;;
83541;SDS011;73485;49.194;12.104;2023-12-20T10:24:17;3.25;;;1.98;;
83541;SDS011;73485;49.194;12.104;2023-12-20T10:26:45;4.25;;;2.25;;
83541;SDS011;73485;49.194;12.104;2023-12-20T10:29:12;3.03;;;1.80;;
83541;SDS011;73485;49.194;12.104;2023-12-20T10:31:40;4.10;;;2.40;;
83541;SDS011;73485;49.194;12.104;2023-12-20T10:34:09;2.40;;;1.83;;
83541;SDS011;73485;49.194;12.104;2023-12-20T10:36:37;2.47;;;1.73;;
83541;SDS011;73485;49.194;12.104;2023-12-20T10:39:04;2.55;;;1.63;;
83541;SDS011;73485;49.194;12.104;2023-12-20T10:41:34;2.42;;;1.95;;
83541;SDS011;73485;49.194;12.104;2023-12-20T10:44:07;3.13;;;1.92;;
83541;SDS011;73485;49.194;12.104;2023-12-20T10:46:36;2.58;;;1.75;;
83541;SDS011;73485;49.194;12.104;2023-12-20T10:49:04;3.42;;;1.73;;
83541;SDS011;73485;49.194;12.104;2023-12-20T10:51:32;2.97;;;1.77;;
83541;SDS011;73485;49.194;12.104;2023-12-20T10:54:01;2.42;;;1.55;;
83541;SDS011;73485;49.194;12.104;2023-12-20T10:56:31;3.08;;;1.85;;
83541;SDS011;73485;49.194;12.104;2023-12-20T10:59:01;3.20;;;1.98;;
83541;SDS011;73485;49.194;12.104;2023-12-20T11:01:31;2.17;;;1.50;;
83541;SDS011;73485;49.194;12.104;2023-12-20T11:03:59;2.90;;;1.73;;
83541;SDS011;73485;49.194;12.104;2023-12-20T11:06:29;2.40;;;1.55;;
83541;SDS011;73485;49.194;12.104;2023-12-20T11:09:06;2.50;;;1.55;;
83541;SDS011;73485;49.194;12.104;2023-12-20T11:11:42;4.57;;;2.08;;
83541;SDS011;73485;49.194;12.104;2023-12-20T11:14:38;2.22;;;1.45;;
83541;SDS011;73485;49.194;12.104;2023-12-20T11:17:07;2.22;;;1.27;;
83541;SDS011;73485;49.194;12.104;2023-12-20T11:19:36;2.58;;;1.38;;
83541;SDS011;73485;49.194;12.104;2023-12-20T11:22:04;3.63;;;1.58;;
83541;SDS011;73485;49.194;12.104;2023-12-20T11:24:33;4.53;;;1.90;;
83541;SDS011;73485;49.194;12.104;2023-12-20T11:27:04;2.67;;;1.83;;
83541;SDS011;73485;49.194;12.104;2023-12-20T11:29:32;1.88;;;1.20;;
83541;SDS011;73485;49.194;12.104;2023-12-20T11:32:04;4.00;;;1.60;;
83541;SDS011;73485;49.194;12.104;2023-12-20T11:34:56;4.97;;;1.50;;
83541;SDS011;73485;49.194;12.104;2023-12-20T11:37:28;2.97;;;1.73;;
83541;SDS011;73485;49.194;12.104;2023-12-20T11:40:00;4.22;;;1.50;;
83541;SDS011;73485;49.194;12.104;2023-12-20T11:42:28;5.97;;;2.03;;
83541;SDS011;73485;49.194;12.104;2023-12-20T11:45:01;2.72;;;1.45;;
83541;SDS011;73485;49.194;12.104;2023-12-20T11:47:31;2.17;;;1.58;;
83541;SDS011;73485;49.194;12.104;2023-12-20T11:49:59;3.38;;;1.35;;
83541;SDS011;73485;49.194;12.104;2023-12-20T11:52:30;3.92;;;1.67;;
83541;SDS011;73485;49.194;12.104;2023-12-20T11:54:57;2.05;;;1.70;;
83541;SDS011;73485;49.194;12.104;2023-12-20T11:57:25;4.68;;;1.50;;
83541;SDS011;73485;49.194;12.104;2023-12-20T11:59:54;2.28;;;1.60;;
83541;SDS011;73485;49.194;12.104;2023-12-20T12:02:22;3.75;;;1.30;;
83541;SDS011;73485;49.194;12.104;2023-12-20T12:04:51;6.47;;;1.80;;
83541;SDS011;73485;49.194;12.104;2023-12-20T12:07:19;2.25;;;1.40;;
83541;SDS011;73485;49.194;12.104;2023-12-20T12:09:47;2.58;;;1.35;;
83541;SDS011;73485;49.194;12.104;2023-12-20T12:12:16;3.25;;;1.33;;
83541;SDS011;73485;49.194;12.104;2023-12-20T12:14:44;4.32;;;1.23;;
83541;SDS011;73485;49.194;12.104;2023-12-20T12:17:12;2.75;;;1.10;;
83541;SDS011;73485;49.194;12.104;2023-12-20T12:19:40;5.30;;;1.85;;
83541;SDS011;73485;49.194;12.104;2023-12-20T12:22:09;3.38;;;1.40;;
83541;SDS011;73485;49.194;12.104;2023-12-20T12:24:41;5.13;;;1.58;;
83541;SDS011;73485;49.194;12.104;2023-12-20T12:27:10;3.85;;;2.28;;
83541;SDS011;73485;49.194;12.104;2023-12-20T12:29:38;6.50;;;1.75;;
83541;SDS011;73485;49.194;12.104;2023-12-20T12:32:06;5.55;;;1.30;;
83541;SDS011;73485;49.194;12.104;2023-12-20T12:34:35;2.33;;;1.23;;
83541;SDS011;73485;49.194;12.104;2023-12-20T12:37:04;2.97;;;1.42;;
83541;SDS011;73485;49.194;12.104;2023-12-20T12:39:33;2.25;;;1.05;;
83541;SDS011;73485;49.194;12.104;2023-12-20T12:42:01;6.60;;;1.42;;
83541;SDS011;73485;49.194;12.104;2023-12-20T12:44:29;2.08;;;1.35;;
83541;SDS011;73485;49.194;12.104;2023-12-20T12:46:56;5.13;;;1.23;;
83541;SDS011;73485;49.194;12.104;2023-12-20T12:49:24;4.30;;;1.30;;
83541;SDS011;73485;49.194;12.104;2023-12-20T12:51:51;2.75;;;1.25;;
83541;SDS011;73485;49.194;12.104;2023-12-20T12:54:20;4.68;;;1.45;;
83541;SDS011;73485;49.194;12.104;2023-12-20T12:56:52;1.20;;;1.00;;
83541;SDS011;73485;49.194;12.104;2023-12-20T12:59:20;2.08;;;1.35;;
83541;SDS011;73485;49.194;12.104;2023-12-20T13:01:47;3.88;;;1.60;;
83541;SDS011;73485;49.194;12.104;2023-12-20T13:04:15;2.55;;;1.02;;
83541;SDS011;73485;49.194;12.104;2023-12-20T13:06:43;7.00;;;1.23;;
83541;SDS011;73485;49.194;12.104;2023-12-20T13:09:10;2.50;;;1.50;;
83541;SDS011;73485;49.194;12.104;2023-12-20T13:11:38;2.70;;;1.45;;
83541;SDS011;73485;49.194;12.104;2023-12-20T13:14:07;6.60;;;1.45;;
83541;SDS011;73485;49.194;12.104;2023-12-20T13:16:37;6.97;;;1.23;;
83541;SDS011;73485;49.194;12.104;2023-12-20T13:19:04;1.67;;;1.17;;
83541;SDS011;73485;49.194;12.104;2023-12-20T13:21:32;3.50;;;1.58;;
83541;SDS011;73485;49.194;12.104;2023-12-20T13:24:00;3.45;;;1.23;;
83541;SDS011;73485;49.194;12.104;2023-12-20T13:26:28;3.55;;;1.65;;
83541;SDS011;73485;49.194;12.104;2023-12-20T13:28:55;3.10;;;1.02;;
83541;SDS011;73485;49.194;12.104;2023-12-20T13:31:24;1.77;;;1.25;;
83541;SDS011;73485;49.194;12.104;2023-12-20T13:33:52;3.65;;;0.80;;
83541;SDS011;73485;49.194;12.104;2023-12-20T13:36:20;3.47;;;1.30;;
83541;SDS011;73485;49.194;12.104;2023-12-20T13:38:47;3.53;;;1.38;;
83541;SDS011;73485;49.194;12.104;2023-12-20T13:41:15;2.63;;;1.17;;
83541;SDS011;73485;49.194;12.104;2023-12-20T13:43:43;3.47;;;1.10;;
83541;SDS011;73485;49.194;12.104;2023-12-20T13:46:11;5.63;;;1.50;;
83541;SDS011;73485;49.194;12.104;2023-12-20T13:48:41;7.10;;;1.42;;
83541;SDS011;73485;49.194;12.104;2023-12-20T13:51:09;1.70;;;1.20;;
83541;SDS011;73485;49.194;12.104;2023-12-20T13:53:37;2.78;;;1.58;;
83541;SDS011;73485;49.194;12.104;2023-12-20T13:56:05;2.42;;;1.10;;
83541;SDS011;73485;49.194;12.104;2023-12-20T13:58:33;3.53;;;1.70;;
83541;SDS011;73485;49.194;12.104;2023-12-20T14:03:31;2.00;;;1.55;;
83541;SDS011;73485;49.194;12.104;2023-12-20T14:06:00;3.45;;;1.58;;
83541;SDS011;73485;49.194;12.104;2023-12-20T14:08:28;3.80;;;1.58;;
83541;SDS011;73485;49.194;12.104;2023-12-20T14:10:55;5.15;;;1.35;;
83541;SDS011;73485;49.194;12.104;2023-12-20T14:13:23;1.92;;;1.15;;
83541;SDS011;73485;49.194;12.104;2023-12-20T14:15:51;2.10;;;1.42;;
83541;SDS011;73485;49.194;12.104;2023-12-20T14:18:20;4.35;;;1.45;;
83541;SDS011;73485;49.194;12.104;2023-12-20T14:20:48;2.90;;;1.30;;
83541;SDS011;73485;49.194;12.104;2023-12-20T14:23:18;2.90;;;1.23;;
83541;SDS011;73485;49.194;12.104;2023-12-20T14:25:46;3.67;;;1.42;;
83541;SDS011;73485;49.194;12.104;2023-12-20T14:28:18;3.70;;;1.15;;
83541;SDS011;73485;49.194;12.104;2023-12-20T14:30:46;2.72;;;1.38;;
83541;SDS011;73485;49.194;12.104;2023-12-20T14:33:15;3.17;;;1.38;;
83541;SDS011;73485;49.194;12.104;2023-12-20T14:35:43;6.20;;;2.35;;
83541;SDS011;73485;49.194;12.104;2023-12-20T14:38:11;3.72;;;1.60;;
83541;SDS011;73485;49.194;12.104;2023-12-20T14:40:42;3.75;;;1.55;;